»·PEaware :: N367HP KAJO-KVCV

N367HP :: KAJO-KVCV

FLIGHT INFORMATION

Flight Status: Arrived
Operator: Privately registered:
United States
More flights under this callsign
Pilot: Hans V. (32191)
Aircraft: CESSNA 172 SKYHAWK
(C172)
More flights by this aircraft type
Origin: KAJO Corona Mun
United States
Destination: KVCV Socal Logistics
United States
More flights between these airports :: More routes between these airports
Route: +PDZ V442 APLES
File this flight plan on PilotEdge
Remarks: ODP HOLD I-11 RATING
Altitude:
(Current/Filed)
11,000ft
Speed:
(Current/Filed)
110kts
Departed: 25-Nov-20 12:06 PM
Arrived: 25-Nov-20 01:32 PM
Distance/Time
Traveled:
43nm/1:26
Distance/Time
To Go:
Arrived

Flight Plot

Page will automatically refresh every two minutes.


Map Options




Map Legend


Flown Route
Filed Route
Departure Airport
Arrival Airport
Navaid (VOR, NDB)
Fix

Horizontal Profiles

Position Reports

Time Latitude Longitude Heading Altitude Ground
Speed
25-Nov-20 11:20 33.897075 -117.604563 305 537ft 0kts
25-Nov-20 11:21 33.897075 -117.604563 305 537ft 0kts
25-Nov-20 11:22 33.897075 -117.604563 305 537ft 0kts
25-Nov-20 11:23 33.897075 -117.604563 305 537ft 0kts
25-Nov-20 11:24 33.897075 -117.604563 305 537ft 0kts
25-Nov-20 11:25 33.897075 -117.604563 305 537ft 0kts
25-Nov-20 11:26 33.897075 -117.604563 305 537ft 0kts
25-Nov-20 11:27 33.897075 -117.604563 305 537ft 0kts
25-Nov-20 11:28 33.897075 -117.604563 305 537ft 0kts
25-Nov-20 11:29 33.897075 -117.604563 305 537ft 0kts
25-Nov-20 11:30 33.897075 -117.604563 305 537ft 0kts
25-Nov-20 11:31 33.897075 -117.604563 305 537ft 0kts
25-Nov-20 11:32 33.897075 -117.604563 305 537ft 0kts
25-Nov-20 11:33 33.897075 -117.604563 305 537ft 0kts
25-Nov-20 11:34 33.897075 -117.604563 305 537ft 0kts
25-Nov-20 11:35 33.897075 -117.604563 305 537ft 0kts
25-Nov-20 11:36 33.897075 -117.604563 305 537ft 0kts
25-Nov-20 11:37 33.897075 -117.604563 305 537ft 0kts
25-Nov-20 11:38 33.897075 -117.604563 305 537ft 0kts
25-Nov-20 11:39 33.897075 -117.604563 305 537ft 0kts
25-Nov-20 11:40 33.897075 -117.604563 305 537ft 0kts
25-Nov-20 11:41 33.897075 -117.604563 305 537ft 0kts
25-Nov-20 11:42 33.897075 -117.604563 305 537ft 0kts
25-Nov-20 11:43 33.897075 -117.604563 305 537ft 0kts
25-Nov-20 11:44 33.897075 -117.604563 305 537ft 0kts
25-Nov-20 11:45 33.897075 -117.604563 305 537ft 0kts
25-Nov-20 11:46 33.897075 -117.604563 305 537ft 0kts
25-Nov-20 11:47 33.897075 -117.604563 305 537ft 0kts
25-Nov-20 11:48 33.897075 -117.604563 305 537ft 0kts
25-Nov-20 11:49 33.897075 -117.604563 305 537ft 0kts
25-Nov-20 11:50 33.897075 -117.604563 305 537ft 0kts
25-Nov-20 11:51 33.897075 -117.604563 305 537ft 0kts
25-Nov-20 11:52 33.897075 -117.604563 305 537ft 0kts
25-Nov-20 11:53 33.897075 -117.604563 305 537ft 0kts
25-Nov-20 11:54 33.897075 -117.604563 305 537ft 0kts
25-Nov-20 11:55 33.897075 -117.604563 305 537ft 0kts
25-Nov-20 11:56 33.897075 -117.604563 305 537ft 0kts
25-Nov-20 11:57 33.897075 -117.604563 305 537ft 0kts
25-Nov-20 11:58 33.897075 -117.604563 305 537ft 0kts
25-Nov-20 11:59 33.897228 -117.605004 266 537ft 14kts
25-Nov-20 12:00 33.897232 -117.607328 302 537ft 0kts
25-Nov-20 12:01 33.897232 -117.607328 302 537ft 0kts
25-Nov-20 12:02 33.897232 -117.607328 302 537ft 0kts
25-Nov-20 12:03 33.897232 -117.607328 302 537ft 0kts
25-Nov-20 12:04 33.897232 -117.607328 302 537ft 0kts
25-Nov-20 12:05 33.897661 -117.605265 90 537ft 51kts
25-Nov-20 12:06 33.906330 -117.593179 311 989ft 54kts
25-Nov-20 12:07 33.902959 -117.599105 49 1669ft 90kts
25-Nov-20 12:08 33.909674 -117.572932 74 2768ft 81kts
25-Nov-20 12:09 33.916007 -117.545222 73 3704ft 82kts
25-Nov-20 12:10 33.927758 -117.516228 42 4002ft 117kts
25-Nov-20 12:11 33.952780 -117.489136 40 3999ft 122kts
25-Nov-20 12:12 33.967269 -117.506359 223 4413ft 104kts
25-Nov-20 12:13 33.940157 -117.512004 191 4906ft 99kts
25-Nov-20 12:14 33.918426 -117.529906 223 5400ft 96kts
25-Nov-20 12:15 33.922514 -117.551294 10 5884ft 93kts
25-Nov-20 12:16 33.945052 -117.529949 40 6076ft 109kts
25-Nov-20 12:17 33.949940 -117.503985 158 6551ft 96kts
25-Nov-20 12:18 33.928859 -117.518829 221 7042ft 89kts
25-Nov-20 12:19 33.914160 -117.542067 284 7635ft 95kts
25-Nov-20 12:20 33.935335 -117.540427 40 8229ft 96kts
25-Nov-20 12:21 33.955427 -117.519242 40 8831ft 94kts
25-Nov-20 12:22 33.952589 -117.494513 175 8999ft 108kts
25-Nov-20 12:23 33.928659 -117.514454 226 9000ft 111kts
25-Nov-20 12:24 33.916929 -117.545313 308 8997ft 113kts
25-Nov-20 12:25 33.940867 -117.532096 53 9000ft 115kts
25-Nov-20 12:26 33.964472 -117.505928 34 9000ft 116kts
25-Nov-20 12:27 33.992980 -117.485485 28 8889ft 124kts
25-Nov-20 12:28 34.022882 -117.466730 26 8880ft 119kts
25-Nov-20 12:29 34.052408 -117.448848 26 8881ft 118kts
25-Nov-20 12:30 34.082139 -117.430985 26 8881ft 118kts
25-Nov-20 12:31 34.111620 -117.413296 26 8881ft 118kts
25-Nov-20 12:32 34.141179 -117.395546 26 8881ft 118kts
25-Nov-20 12:33 34.170770 -117.377774 25 8881ft 118kts
25-Nov-20 12:34 34.200329 -117.360009 25 8881ft 118kts
25-Nov-20 12:35 34.229792 -117.342288 26 8881ft 118kts
25-Nov-20 12:36 34.259332 -117.324506 26 8880ft 118kts
25-Nov-20 12:37 34.288913 -117.306687 26 8881ft 118kts
25-Nov-20 12:38 34.318414 -117.288900 26 8881ft 118kts
25-Nov-20 12:39 34.347973 -117.271066 26 8881ft 118kts
25-Nov-20 12:40 34.377530 -117.253212 26 8881ft 118kts
25-Nov-20 12:41 34.407032 -117.235332 26 8881ft 118kts
25-Nov-20 12:42 34.436550 -117.217443 26 8881ft 118kts
25-Nov-20 12:43 34.466024 -117.199570 26 8881ft 118kts
25-Nov-20 12:44 34.495521 -117.181668 26 8881ft 118kts
25-Nov-20 12:45 34.525087 -117.163710 26 8881ft 118kts
25-Nov-20 12:46 34.555309 -117.147939 13 8816ft 120kts
25-Nov-20 12:47 34.589789 -117.143011 1 8029ft 128kts
25-Nov-20 12:49 34.625413 -117.145819 351 7230ft 129kts
25-Nov-20 12:50 34.660262 -117.156251 341 6496ft 124kts
25-Nov-20 12:51 34.690110 -117.172093 331 6480ft 115kts
25-Nov-20 12:52 34.717001 -117.193020 322 6481ft 115kts
25-Nov-20 12:53 34.740954 -117.218926 313 6481ft 115kts
25-Nov-20 12:54 34.761201 -117.249003 304 6481ft 115kts
25-Nov-20 12:55 34.777318 -117.282578 295 6467ft 116kts
25-Nov-20 12:56 34.789367 -117.320569 286 5959ft 119kts
25-Nov-20 12:57 34.790819 -117.358873 223 5446ft 115kts
25-Nov-20 12:58 34.765892 -117.373538 190 4979ft 96kts
25-Nov-20 12:59 34.739114 -117.377264 184 4480ft 97kts
25-Nov-20 13:00 34.712868 -117.379620 184 4179ft 87kts
25-Nov-20 13:01 34.687840 -117.381773 184 4112ft 96kts
25-Nov-20 13:02 34.661889 -117.384200 184 3709ft 92kts
25-Nov-20 13:02 34.639651 -117.386209 184 3221ft 103kts
25-Nov-20 13:04 34.607189 -117.386495 180 3768ft 90kts
25-Nov-20 13:04 34.580517 -117.386693 182 4012ft 107kts
25-Nov-20 13:06 34.583625 -117.420901 313 4293ft 125kts
25-Nov-20 13:07 34.605161 -117.450436 313 4886ft 112kts
25-Nov-20 13:07 34.613143 -117.479488 280 5386ft 110kts
25-Nov-20 13:09 34.620068 -117.522547 281 5882ft 121kts
25-Nov-20 13:10 34.627136 -117.561305 282 5879ft 114kts
25-Nov-20 13:10 34.632954 -117.592913 282 5881ft 115kts
25-Nov-20 13:12 34.641207 -117.637235 283 5881ft 115kts
25-Nov-20 13:12 34.647013 -117.668939 282 5881ft 115kts
25-Nov-20 13:13 34.653941 -117.706983 282 5881ft 115kts
25-Nov-20 13:14 34.660665 -117.745069 282 5881ft 115kts
25-Nov-20 13:15 34.650378 -117.772842 165 5878ft 114kts
25-Nov-20 13:16 34.638865 -117.738886 100 5881ft 115kts
25-Nov-20 13:17 34.649006 -117.710440 348 5878ft 114kts
25-Nov-20 13:18 34.660971 -117.743883 280 5881ft 115kts
25-Nov-20 13:19 34.655515 -117.777283 189 5878ft 114kts
25-Nov-20 13:20 34.641147 -117.748355 98 5881ft 115kts
25-Nov-20 13:21 34.636446 -117.709789 98 5839ft 119kts
25-Nov-20 13:22 34.631385 -117.667069 98 5346ft 130kts
25-Nov-20 13:23 34.626780 -117.624681 94 4888ft 122kts
25-Nov-20 13:24 34.636435 -117.587556 81 4631ft 122kts
25-Nov-20 13:25 34.641857 -117.549591 79 4380ft 107kts
25-Nov-20 13:26 34.645830 -117.513645 89 4380ft 107kts
25-Nov-20 13:27 34.644824 -117.477424 91 4381ft 107kts
25-Nov-20 13:28 34.643893 -117.446952 91 4378ft 78kts
25-Nov-20 13:29 34.642996 -117.417429 91 4381ft 92kts
25-Nov-20 13:30 34.633219 -117.390618 144 4131ft 105kts
25-Nov-20 13:31 34.612971 -117.386799 180 2823ft 30kts
25-Nov-20 13:32 34.610549 -117.385522 87 2828ft 0kts
25-Nov-20 13:33 34.609951 -117.384166 178 2829ft 15kts
25-Nov-20 13:34 34.604759 -117.384133 179 2837ft 19kts
25-Nov-20 13:35 34.599051 -117.384083 179 2847ft 21kts
25-Nov-20 13:36 34.593866 -117.382824 130 2857ft 19kts
25-Nov-20 13:37 34.590180 -117.378241 133 2868ft 19kts
25-Nov-20 13:38 34.589246 -117.373691 306 2867ft 1kts
25-Nov-20 13:39 34.589255 -117.373704 313 2867ft 0kts
25-Nov-20 13:40 34.589255 -117.373704 313 2867ft 0kts
25-Nov-20 13:41 34.589255 -117.373704 313 2867ft 0kts
25-Nov-20 13:42 34.589255 -117.373704 313 2867ft 0kts

Navigation Log

Ident Type
Flight plan parsing failed, navigation log unavailable